Shelby County Airport
KEET : rendu visible

Aérodrome :











RETROUVEZ-NOUS SUR...

 
LOGIN :

S'inscrire | Disclaimer

   EN    FR    IT 

 









Légende :    VFR   VFR Marginal   IFR   IFR Intensif   IFR Très Intensif
Visi : 
Plafond : 
>= 8 km
>= 3000ft
5 à 8 km
1000 à 3000 ft
1500m à 5 km
500 à 1000 ft
800 à 1500m
200 à 500 ft
< 800m
< 200 ft
Symboles :   Orages  Brouillard  Fortes neiges  Fortes précipitations  Vent > 20 kt






- Altitude de l'aérodrome : 586 ft


KEET - Shelby County

DERNIER METAR :
  • 260353Z AUTO 00000KT 10SM CLR 04/02 A3017 RMK AO2 SLP217 T00390022

METARs EXPIRÉS :
  • 260253Z AUTO 00000KT 10SM CLR 04/02 A3015 RMK AO2 SLP209 T00390022 51007
  • 260153Z AUTO 00000KT 10SM CLR 06/02 A3014 RMK AO2 SLP207 T00560017

TAF KEET
Valide du 26 à 00h jusqu'au 27 à 00h UTC


252336Z 2600/2624 29004KT P6SM BKN250
FM261500 19003KT P6SM BKN120
PROB30 2621/2624 6SM -SHRA OVC050



MET'MAP, la Météo Aéronautique d'un coup d'oeil ! - Copyright ORBIFLY Décembre 2007 - Disclaimer

ORBIFLY MET'MAP TEAM :

Programmation & Développement : Alexandra Zaïnal
Sur une idée originale de : Baudouin d'Aumeries
Assistance à la programmation : Marc-Olivier Méhu
Soutien technique & logistique : Manuel Goepfert

Contact : metmap@orbifly.com




SOURCES & CREDITS :

   NOAA       Earth
Advisory